Time;durP1;ratioP1;P1;durP2;ratioP2;P2;SDS_P1;SDS_P2;PMS_P1;PMS_P2;Temp;Humidity;BMP_temperature;BMP_pressure;BME280_temperature;BME280_humidity;BME280_pressure;Samples;Min_cycle;Max_cycle;Signal;HPM_P1;HPM_P2
2023/12/20 00:00:57;;;;;;;6.27;4.83;;;21.10;56.40;;;;;;5090780;28;20395;-70
2023/12/20 00:03:23;;;;;;;7.80;5.30;;;21.10;56.40;;;;;;5090781;28;20161;-70
2023/12/20 00:05:50;;;;;;;6.63;5.13;;;21.10;56.40;;;;;;5090664;28;20193;-69
2023/12/20 00:08:15;;;;;;;6.90;5.17;;;21.10;56.40;;;;;;5090735;28;20426;-70
2023/12/20 00:10:41;;;;;;;9.23;5.33;;;21.10;56.40;;;;;;5090727;28;20412;-70
2023/12/20 00:13:07;;;;;;;7.40;5.60;;;21.10;56.40;;;;;;5090610;28;20238;-70
2023/12/20 00:15:33;;;;;;;9.17;5.50;;;21.10;56.40;;;;;;5090659;28;20174;-69
2023/12/20 00:17:59;;;;;;;10.33;6.20;;;21.10;56.40;;;;;;5090125;28;20511;-69
2023/12/20 00:20:25;;;;;;;8.60;5.73;;;21.00;56.40;;;;;;5091981;28;20408;-69
2023/12/20 00:22:50;;;;;;;9.47;6.40;;;21.10;56.40;;;;;;5093234;28;20211;-69
2023/12/20 00:25:16;;;;;;;7.30;5.40;;;21.00;56.30;;;;;;5094977;28;20204;-70
2023/12/20 00:27:42;;;;;;;6.50;4.90;;;21.10;56.40;;;;;;5094504;28;20189;-69
2023/12/20 00:30:08;;;;;;;7.90;5.03;;;21.10;56.40;;;;;;5094411;28;20173;-69
2023/12/20 00:32:35;;;;;;;7.00;4.80;;;21.10;56.40;;;;;;5093077;28;20261;-70
2023/12/20 00:35:01;;;;;;;6.07;4.97;;;21.10;56.40;;;;;;5094277;28;20447;-69
2023/12/20 00:37:26;;;;;;;8.17;5.43;;;21.10;56.40;;;;;;5094508;28;20462;-69
2023/12/20 00:39:52;;;;;;;8.87;5.83;;;21.00;56.40;;;;;;5092951;28;20188;-70
2023/12/20 00:42:17;;;;;;;7.30;5.30;;;21.00;56.40;;;;;;5094396;28;20253;-69
2023/12/20 00:44:43;;;;;;;8.27;5.70;;;21.00;56.40;;;;;;5094182;28;20222;-70
2023/12/20 00:47:09;;;;;;;9.00;5.00;;;21.00;56.40;;;;;;5094213;28;20553;-69
2023/12/20 00:49:34;;;;;;;9.40;5.40;;;21.00;56.40;;;;;;5094163;28;20165;-69
2023/12/20 00:52:00;;;;;;;8.20;6.00;;;21.00;56.40;;;;;;5094040;28;20218;-69
2023/12/20 00:54:25;;;;;;;9.20;5.40;;;21.00;56.40;;;;;;5094053;28;20636;-70
2023/12/20 00:56:51;;;;;;;8.30;5.67;;;21.00;56.40;;;;;;5093952;28;20276;-69
2023/12/20 00:59:17;;;;;;;6.70;6.03;;;21.10;56.40;;;;;;5094056;28;20270;-70
2023/12/20 01:01:43;;;;;;;6.13;4.80;;;21.00;56.40;;;;;;5093859;28;20161;-69
2023/12/20 01:04:09;;;;;;;6.53;4.63;;;21.10;56.40;;;;;;5094176;28;20772;-69
2023/12/20 01:06:34;;;;;;;6.67;5.30;;;21.00;56.40;;;;;;5093714;28;20197;-70
2023/12/20 01:09:00;;;;;;;7.30;5.40;;;21.10;56.40;;;;;;5093678;28;20170;-69
2023/12/20 01:11:25;;;;;;;7.10;5.00;;;21.00;56.40;;;;;;5093748;28;20336;-69
2023/12/20 01:13:51;;;;;;;6.27;4.63;;;21.00;56.30;;;;;;5093788;28;20934;-70
2023/12/20 01:16:16;;;;;;;8.80;4.97;;;21.00;56.40;;;;;;5093520;28;20304;-69
2023/12/20 01:18:42;;;;;;;6.73;4.73;;;21.00;56.40;;;;;;5093525;28;20196;-70
2023/12/20 01:21:08;;;;;;;9.50;5.40;;;21.00;56.40;;;;;;5093547;28;20213;-69
2023/12/20 01:23:33;;;;;;;6.80;4.73;;;21.00;56.40;;;;;;5093741;28;20173;-70
2023/12/20 01:26:02;;;;;;;7.93;4.87;;;21.10;56.40;;;;;;5093255;28;20205;-69
2023/12/20 01:28:28;;;;;;;5.13;3.63;;;21.00;56.40;;;;;;5091939;28;20208;-69
2023/12/20 01:30:53;;;;;;;5.17;4.50;;;21.00;56.40;;;;;;5093451;28;20835;-69
2023/12/20 01:33:19;;;;;;;6.37;4.40;;;21.00;56.40;;;;;;5092211;28;20169;-70
2023/12/20 01:35:45;;;;;;;6.77;4.83;;;21.00;56.40;;;;;;5091961;28;20265;-69
2023/12/20 01:38:10;;;;;;;8.07;4.87;;;21.00;56.40;;;;;;5093339;28;20197;-70
2023/12/20 01:40:36;;;;;;;6.27;4.30;;;21.00;56.40;;;;;;5093274;28;20257;-69
2023/12/20 01:43:06;;;;;;;7.63;4.70;;;21.00;56.40;;;;;;5092017;28;20177;-69
2023/12/20 01:45:32;;;;;;;5.53;4.00;;;21.00;56.40;;;;;;5093005;28;20197;-70
2023/12/20 01:47:59;;;;;;;5.10;3.97;;;21.00;56.40;;;;;;5092935;28;20772;-69
2023/12/20 01:50:26;;;;;;;6.63;4.37;;;21.00;56.40;;;;;;5093160;28;20165;-69
2023/12/20 01:52:55;;;;;;;5.70;4.53;;;21.00;56.40;;;;;;5092971;28;20408;-70
2023/12/20 01:55:21;;;;;;;4.47;3.83;;;21.00;56.40;;;;;;5091631;28;20416;-69
2023/12/20 01:57:47;;;;;;;5.43;4.20;;;21.00;56.40;;;;;;5092955;28;20471;-70
2023/12/20 02:00:14;;;;;;;5.30;3.87;;;21.00;56.40;;;;;;5091464;28;20458;-69
2023/12/20 02:02:40;;;;;;;6.50;4.80;;;21.00;56.40;;;;;;5093386;28;20185;-69
2023/12/20 02:05:11;;;;;;;6.17;4.40;;;21.00;56.30;;;;;;5092703;28;20519;-69
2023/12/20 02:07:36;;;;;;;7.97;5.30;;;21.00;56.40;;;;;;5092617;28;20424;-70
2023/12/20 02:10:04;;;;;;;5.47;4.13;;;21.00;56.40;;;;;;5092593;28;20940;-71
2023/12/20 02:12:30;;;;;;;7.77;4.67;;;21.00;56.40;;;;;;5092830;28;20228;-69
2023/12/20 02:14:55;;;;;;;6.10;5.50;;;21.00;56.40;;;;;;5092677;28;20431;-70
2023/12/20 02:17:23;;;;;;;5.80;5.07;;;21.00;56.40;;;;;;5092205;28;20992;-69
2023/12/20 02:19:49;;;;;;;5.80;4.10;;;21.00;56.40;;;;;;5092520;28;20154;-70
2023/12/20 02:22:15;;;;;;;5.97;4.47;;;21.00;56.40;;;;;;5092197;28;20460;-70
2023/12/20 02:24:40;;;;;;;5.00;4.00;;;21.00;56.40;;;;;;5092152;28;20905;-70
2023/12/20 02:27:07;;;;;;;6.93;4.40;;;21.00;56.40;;;;;;5092200;28;20189;-69
2023/12/20 02:29:34;;;;;;;7.53;4.57;;;21.00;56.40;;;;;;5092115;28;20180;-69
2023/12/20 02:32:00;;;;;;;5.47;4.20;;;21.00;56.40;;;;;;5092403;28;21002;-69
2023/12/20 02:34:25;;;;;;;5.10;4.10;;;20.90;56.30;;;;;;5092111;28;20391;-70
2023/12/20 02:36:51;;;;;;;7.07;4.57;;;21.00;56.90;;;;;;5092288;28;20232;-69
2023/12/20 02:39:16;;;;;;;6.37;5.07;;;21.00;56.40;;;;;;5091894;28;20174;-69
2023/12/20 02:41:42;;;;;;;5.77;4.10;;;21.00;56.40;;;;;;5091958;28;20174;-70
2023/12/20 02:44:08;;;;;;;5.57;4.27;;;20.90;56.30;;;;;;5091785;28;20974;-70
2023/12/20 02:46:33;;;;;;;6.10;4.23;;;21.00;56.40;;;;;;5091800;28;20636;-70
2023/12/20 02:48:59;;;;;;;4.90;3.43;;;21.00;56.40;;;;;;5091730;28;20205;-69
2023/12/20 02:51:24;;;;;;;4.17;3.50;;;20.90;56.30;;;;;;5091808;28;20169;-70
2023/12/20 02:53:50;;;;;;;4.20;3.63;;;21.00;56.40;;;;;;5091847;28;20244;-69
2023/12/20 02:56:16;;;;;;;3.97;3.10;;;20.90;56.30;;;;;;5091601;28;20668;-70
2023/12/20 02:58:41;;;;;;;4.80;4.17;;;21.00;56.40;;;;;;5091614;28;20525;-70
2023/12/20 03:01:07;;;;;;;5.77;4.43;;;20.90;56.30;;;;;;5091521;28;20178;-69
2023/12/20 03:03:32;;;;;;;6.03;3.97;;;21.00;56.40;;;;;;5091486;28;20170;-69
2023/12/20 03:05:58;;;;;;;5.13;4.00;;;20.90;56.30;;;;;;5091430;28;20193;-69
2023/12/20 03:08:24;;;;;;;5.30;4.10;;;20.90;56.30;;;;;;5091502;28;20214;-70
2023/12/20 03:10:50;;;;;;;5.83;4.50;;;20.90;56.30;;;;;;5091684;28;20252;-69
2023/12/20 03:13:15;;;;;;;5.40;3.63;;;20.90;56.30;;;;;;5091438;28;20612;-70
2023/12/20 03:15:41;;;;;;;5.53;3.90;;;20.90;56.30;;;;;;5091471;28;20441;-70
2023/12/20 03:18:06;;;;;;;5.60;3.70;;;20.90;56.30;;;;;;5091091;28;20346;-70
2023/12/20 03:20:34;;;;;;;6.77;4.23;;;20.90;56.30;;;;;;5091236;28;20554;-69
2023/12/20 03:23:00;;;;;;;4.87;4.07;;;20.90;56.30;;;;;;5091373;28;20274;-69
2023/12/20 03:25:25;;;;;;;5.70;3.90;;;20.90;56.30;;;;;;5090980;28;20451;-70
2023/12/20 03:27:52;;;;;;;4.40;3.80;;;20.90;56.30;;;;;;5090997;28;20434;-69
2023/12/20 03:30:17;;;;;;;5.07;4.47;;;20.90;56.30;;;;;;5091099;28;20665;-70
2023/12/20 03:32:43;;;;;;;4.27;3.20;;;20.90;56.30;;;;;;5090945;28;20404;-70
2023/12/20 03:35:09;;;;;;;4.20;3.23;;;21.00;56.40;;;;;;5091074;28;20255;-69
2023/12/20 03:37:35;;;;;;;5.77;4.00;;;20.90;56.30;;;;;;5090915;28;20190;-69
2023/12/20 03:40:01;;;;;;;5.23;3.70;;;20.90;56.30;;;;;;5091066;28;20196;-70
2023/12/20 03:42:26;;;;;;;4.83;3.20;;;20.90;56.40;;;;;;5090851;28;20169;-70
2023/12/20 03:44:52;;;;;;;5.50;3.73;;;20.90;56.30;;;;;;5090888;28;20412;-69
2023/12/20 03:47:17;;;;;;;4.47;3.47;;;20.90;56.30;;;;;;5090893;28;20189;-69
2023/12/20 03:49:43;;;;;;;4.40;3.47;;;20.90;56.30;;;;;;5091055;28;20629;-70
2023/12/20 03:52:08;;;;;;;3.70;3.20;;;20.90;56.30;;;;;;5090829;28;20212;-70
2023/12/20 03:54:35;;;;;;;5.23;4.17;;;20.90;56.30;;;;;;5090762;28;20170;-69
2023/12/20 03:57:01;;;;;;;4.10;3.13;;;20.90;56.30;;;;;;5094732;28;20189;-69
2023/12/20 03:59:26;;;;;;;5.30;3.33;;;20.90;56.30;;;;;;5094861;28;20429;-70
2023/12/20 04:01:52;;;;;;;5.50;3.53;;;20.90;56.30;;;;;;5094805;28;20227;-69
2023/12/20 04:04:18;;;;;;;5.17;3.70;;;20.90;56.30;;;;;;5094674;28;20230;-69
2023/12/20 04:06:44;;;;;;;4.23;3.07;;;20.90;56.30;;;;;;5094610;28;20284;-69
2023/12/20 04:09:10;;;;;;;4.63;3.03;;;20.90;56.40;;;;;;5094536;28;20502;-69
2023/12/20 04:11:36;;;;;;;6.33;3.60;;;20.90;56.30;;;;;;5094726;28;20170;-69
2023/12/20 04:14:02;;;;;;;5.50;3.47;;;20.90;56.40;;;;;;5094700;28;20668;-68
2023/12/20 04:16:27;;;;;;;4.50;3.63;;;20.90;56.40;;;;;;5094412;28;20427;-69
2023/12/20 04:18:53;;;;;;;4.60;3.40;;;20.90;57.00;;;;;;5094547;28;20189;-69
2023/12/20 04:21:18;;;;;;;5.00;3.43;;;20.90;56.40;;;;;;5094359;28;20254;-69
2023/12/20 04:23:44;;;;;;;4.70;3.50;;;20.90;56.40;;;;;;5094344;28;20235;-69
2023/12/20 04:26:10;;;;;;;4.80;3.20;;;20.90;56.40;;;;;;5094174;28;20197;-69
2023/12/20 04:28:36;;;;;;;4.83;2.90;;;20.90;56.40;;;;;;5093186;28;20177;-68
2023/12/20 04:31:01;;;;;;;4.40;3.30;;;20.90;56.40;;;;;;5092816;28;20909;-69
2023/12/20 04:33:27;;;;;;;4.60;3.17;;;20.90;56.40;;;;;;5094231;28;20180;-70
2023/12/20 04:35:53;;;;;;;4.80;3.83;;;20.90;56.40;;;;;;5094093;28;20165;-70
2023/12/20 04:38:18;;;;;;;5.13;3.87;;;20.90;56.40;;;;;;5094058;28;20193;-69
2023/12/20 04:40:44;;;;;;;4.50;3.50;;;20.90;56.40;;;;;;5094008;28;20606;-69
2023/12/20 04:43:10;;;;;;;4.27;3.40;;;20.90;56.40;;;;;;5093896;28;20188;-69
2023/12/20 04:45:35;;;;;;;4.97;3.20;;;20.90;56.40;;;;;;5093869;28;20209;-70
2023/12/20 04:48:02;;;;;;;4.80;3.20;;;20.90;56.40;;;;;;5093902;28;20213;-70
2023/12/20 04:50:28;;;;;;;3.40;3.07;;;20.90;56.40;;;;;;5094035;28;20176;-69
2023/12/20 04:52:53;;;;;;;5.40;3.50;;;20.90;56.40;;;;;;5094004;28;20399;-69
2023/12/20 04:55:19;;;;;;;3.70;2.90;;;20.90;56.40;;;;;;5094013;28;20193;-70
2023/12/20 04:57:45;;;;;;;5.00;3.13;;;20.90;56.30;;;;;;5093900;28;20276;-69
2023/12/20 05:00:12;;;;;;;3.53;2.90;;;20.90;56.40;;;;;;5093749;28;20910;-69
2023/12/20 05:02:37;;;;;;;3.23;2.90;;;20.90;56.40;;;;;;5093939;28;20185;-69
2023/12/20 05:05:03;;;;;;;3.23;2.90;;;20.90;56.40;;;;;;5093649;28;20767;-69
2023/12/20 05:07:29;;;;;;;7.20;2.87;;;20.90;56.40;;;;;;5092595;28;20235;-69
2023/12/20 05:09:54;;;;;;;3.80;3.00;;;20.90;56.40;;;;;;5092198;28;20542;-69
2023/12/20 05:12:20;;;;;;;4.70;3.30;;;20.90;56.40;;;;;;5093444;28;20269;-69
2023/12/20 05:14:46;;;;;;;3.87;3.03;;;20.90;56.40;;;;;;5093474;28;20174;-69
2023/12/20 05:17:11;;;;;;;4.37;3.07;;;20.90;56.30;;;;;;5092862;28;20262;-68
2023/12/20 05:19:37;;;;;;;4.07;3.30;;;20.90;56.40;;;;;;5093308;28;20760;-70
2023/12/20 05:22:03;;;;;;;4.70;3.10;;;20.90;56.40;;;;;;5093277;28;20181;-69
2023/12/20 05:24:29;;;;;;;4.77;3.30;;;20.90;56.40;;;;;;5093072;28;20174;-69
2023/12/20 05:26:55;;;;;;;5.13;3.60;;;20.90;56.40;;;;;;5091718;28;20471;-69
2023/12/20 05:29:20;;;;;;;4.93;3.03;;;20.90;56.40;;;;;;5093122;28;20180;-70
2023/12/20 05:31:46;;;;;;;4.10;2.90;;;20.90;56.30;;;;;;5092924;28;20587;-70
2023/12/20 05:34:12;;;;;;;3.70;3.23;;;20.90;56.30;;;;;;5093143;28;20601;-68
2023/12/20 05:36:38;;;;;;;4.23;3.00;;;20.90;56.30;;;;;;5092754;28;20265;-70
2023/12/20 05:39:04;;;;;;;4.13;3.10;;;20.90;56.30;;;;;;5092939;28;20169;-69
2023/12/20 05:41:30;;;;;;;3.97;3.17;;;20.90;56.30;;;;;;5092816;28;20418;-68
2023/12/20 05:43:57;;;;;;;4.47;3.40;;;20.90;56.40;;;;;;5093178;28;20173;-69
2023/12/20 05:46:23;;;;;;;4.60;2.60;;;20.90;56.30;;;;;;5092754;28;20486;-69
2023/12/20 05:48:49;;;;;;;4.27;3.03;;;20.90;56.20;;;;;;5092549;28;20883;-68
2023/12/20 05:51:15;;;;;;;3.93;2.83;;;20.90;56.20;;;;;;5092639;28;20429;-69
2023/12/20 05:53:41;;;;;;;3.90;3.20;;;20.90;56.30;;;;;;5092703;28;20652;-68
2023/12/20 05:56:06;;;;;;;3.90;2.80;;;20.90;56.30;;;;;;5092631;28;20170;-69
2023/12/20 05:58:33;;;;;;;3.23;2.80;;;20.90;56.90;;;;;;5092666;28;20528;-70
2023/12/20 06:00:58;;;;;;;3.93;3.23;;;20.90;56.30;;;;;;5092539;28;20256;-70
2023/12/20 06:03:24;;;;;;;2.90;2.57;;;20.90;56.30;;;;;;5092624;28;20901;-69
2023/12/20 06:05:49;;;;;;;3.80;2.53;;;20.90;56.40;;;;;;5092322;28;20209;-69
2023/12/20 06:08:15;;;;;;;3.73;2.80;;;20.90;56.40;;;;;;5092691;28;20222;-69
2023/12/20 06:10:40;;;;;;;2.90;2.40;;;20.90;56.30;;;;;;5091350;28;20174;-69
2023/12/20 06:13:06;;;;;;;3.63;2.63;;;20.90;56.40;;;;;;5092552;28;20606;-68
2023/12/20 06:15:32;;;;;;;5.03;2.30;;;20.90;56.40;;;;;;5092358;28;20174;-69
2023/12/20 06:17:58;;;;;;;4.47;2.53;;;20.90;56.40;;;;;;5091906;28;20570;-69
2023/12/20 06:20:24;;;;;;;3.20;2.27;;;20.90;56.40;;;;;;5092335;28;20446;-69
2023/12/20 06:22:50;;;;;;;3.50;2.73;;;20.90;56.40;;;;;;5092205;28;20180;-68
2023/12/20 06:25:16;;;;;;;3.47;3.17;;;20.90;56.40;;;;;;5092490;28;20789;-69
2023/12/20 06:27:42;;;;;;;2.57;2.37;;;20.90;56.40;;;;;;5092328;28;20198;-69
2023/12/20 06:30:11;;;;;;;2.73;2.27;;;20.90;56.40;;;;;;5092628;28;20414;-69
2023/12/20 06:32:37;;;;;;;3.13;2.43;;;20.90;56.40;;;;;;5092314;28;20178;-69
2023/12/20 06:35:04;;;;;;;3.70;2.67;;;20.90;56.40;;;;;;5090861;28;20424;-69
2023/12/20 06:37:30;;;;;;;3.50;2.57;;;20.90;57.00;;;;;;5092494;28;20440;-70
2023/12/20 06:39:56;;;;;;;3.60;2.60;;;20.90;56.40;;;;;;5091013;28;20788;-69
2023/12/20 06:42:22;;;;;;;4.17;2.37;;;21.00;56.40;;;;;;5092225;28;20197;-70
2023/12/20 06:44:48;;;;;;;2.33;2.07;;;21.00;56.40;;;;;;5092027;28;20404;-69
2023/12/20 06:47:14;;;;;;;3.50;2.10;;;21.00;56.50;;;;;;5090241;28;20224;-69
2023/12/20 06:49:40;;;;;;;2.30;2.00;;;21.00;56.40;;;;;;5091760;28;20238;-70
2023/12/20 06:52:06;;;;;;;3.43;2.50;;;21.00;56.40;;;;;;5090139;28;20411;-69
2023/12/20 06:54:31;;;;;;;2.80;2.10;;;21.00;56.40;;;;;;5090939;28;20506;-69
2023/12/20 06:56:57;;;;;;;3.60;2.77;;;21.00;56.40;;;;;;5091509;28;20201;-69
2023/12/20 06:59:22;;;;;;;2.97;2.00;;;21.10;56.50;;;;;;5091612;28;20197;-69
2023/12/20 07:01:49;;;;;;;3.40;2.50;;;21.10;56.40;;;;;;5091649;28;20217;-68
2023/12/20 07:04:16;;;;;;;2.70;2.17;;;21.10;56.40;;;;;;5091945;28;20181;-69
2023/12/20 07:06:42;;;;;;;3.63;2.40;;;21.10;56.40;;;;;;5091846;28;20510;-68
2023/12/20 07:09:07;;;;;;;3.00;2.23;;;21.10;56.40;;;;;;5091604;28;20435;-69
2023/12/20 07:11:33;;;;;;;3.13;2.20;;;21.10;56.40;;;;;;5091779;28;20178;-69
2023/12/20 07:13:58;;;;;;;4.30;2.80;;;21.10;56.40;;;;;;5091621;28;20200;-68
2023/12/20 07:16:24;;;;;;;3.90;2.30;;;21.10;56.30;;;;;;5091852;28;20217;-69
2023/12/20 07:18:50;;;;;;;3.57;2.73;;;21.10;56.30;;;;;;5091297;28;20211;-69
2023/12/20 07:21:15;;;;;;;2.70;2.10;;;21.10;56.30;;;;;;5091589;28;20575;-68
2023/12/20 07:23:41;;;;;;;3.97;2.40;;;21.10;56.30;;;;;;5091226;28;20184;-69
2023/12/20 07:26:06;;;;;;;3.20;2.50;;;21.20;56.40;;;;;;5090809;28;20258;-69
2023/12/20 07:28:32;;;;;;;2.10;1.80;;;21.10;56.30;;;;;;5090721;28;20250;-68
2023/12/20 07:30:58;;;;;;;4.17;2.60;;;21.20;56.40;;;;;;5090044;28;20248;-69
2023/12/20 07:33:24;;;;;;;3.80;2.27;;;21.20;56.40;;;;;;5090720;28;20498;-69
2023/12/20 07:35:51;;;;;;;3.37;2.20;;;21.20;56.40;;;;;;5090797;28;20177;-69
2023/12/20 07:38:17;;;;;;;3.30;2.37;;;21.20;56.40;;;;;;5090633;28;20185;-69
2023/12/20 07:40:42;;;;;;;4.10;2.30;;;21.20;56.40;;;;;;5090586;28;20814;-69
2023/12/20 07:43:08;;;;;;;3.17;2.87;;;21.20;56.40;;;;;;5090598;28;20181;-68
2023/12/20 07:45:34;;;;;;;2.33;1.90;;;21.20;56.40;;;;;;5090395;28;20672;-68
2023/12/20 07:48:00;;;;;;;2.87;2.40;;;21.20;56.40;;;;;;5090447;28;20201;-69
2023/12/20 07:50:26;;;;;;;3.77;2.53;;;21.20;56.40;;;;;;5090804;28;20415;-69
2023/12/20 07:52:51;;;;;;;4.67;2.47;;;21.20;56.40;;;;;;5090418;28;20170;-68
2023/12/20 07:55:17;;;;;;;3.00;2.40;;;21.20;56.40;;;;;;5090620;28;20765;-68
2023/12/20 07:57:42;;;;;;;2.50;2.00;;;21.20;57.00;;;;;;5090520;28;20193;-69
2023/12/20 08:00:09;;;;;;;3.03;2.20;;;21.20;56.40;;;;;;5090371;28;20181;-65
2023/12/20 08:02:34;;;;;;;2.97;2.20;;;21.20;56.40;;;;;;5090528;28;20523;-67
2023/12/20 08:05:00;;;;;;;4.10;2.80;;;21.20;56.40;;;;;;5090485;28;20418;-65
2023/12/20 08:07:26;;;;;;;3.10;2.40;;;21.20;56.40;;;;;;5090224;28;20190;-66
2023/12/20 08:09:51;;;;;;;4.80;2.40;;;21.20;56.40;;;;;;5090662;28;20178;-66
2023/12/20 08:12:17;;;;;;;2.60;2.17;;;21.20;56.40;;;;;;5090347;28;20176;-67
2023/12/20 08:14:42;;;;;;;3.57;2.37;;;21.20;56.50;;;;;;5090259;28;20547;-65
2023/12/20 08:17:08;;;;;;;2.77;2.00;;;21.20;56.50;;;;;;5090340;28;20234;-68
2023/12/20 08:19:34;;;;;;;3.30;2.60;;;21.20;56.40;;;;;;5090175;28;20184;-68
2023/12/20 08:21:59;;;;;;;2.60;2.00;;;21.20;56.40;;;;;;5090158;28;20188;-68
2023/12/20 08:24:25;;;;;;;3.23;2.17;;;21.20;56.40;;;;;;5090374;28;20174;-68
2023/12/20 08:26:50;;;;;;;2.87;1.90;;;21.20;56.40;;;;;;5090050;28;20225;-69
2023/12/20 08:29:16;;;;;;;3.00;2.27;;;21.20;56.40;;;;;;5090097;28;20169;-69
2023/12/20 08:31:41;;;;;;;2.63;2.20;;;21.20;56.40;;;;;;5090130;28;20166;-68
2023/12/20 08:34:07;;;;;;;4.27;2.30;;;21.20;56.40;;;;;;5090134;28;20170;-69
2023/12/20 08:36:33;;;;;;;3.57;2.40;;;21.20;56.30;;;;;;5090129;28;20201;-68
2023/12/20 08:39:00;;;;;;;3.00;2.13;;;21.20;56.30;;;;;;5089987;28;20409;-69
2023/12/20 08:41:26;;;;;;;2.10;1.90;;;21.20;56.30;;;;;;5091314;28;20170;-69
2023/12/20 08:43:51;;;;;;;2.80;2.30;;;21.30;56.40;;;;;;5093894;28;20442;-67
2023/12/20 08:46:17;;;;;;;3.10;2.10;;;21.20;56.30;;;;;;5093803;28;20209;-70
2023/12/20 08:48:43;;;;;;;3.30;2.20;;;21.20;56.30;;;;;;5093913;28;20651;-69
2023/12/20 08:51:09;;;;;;;3.20;1.90;;;21.30;56.40;;;;;;5092338;28;20174;-69
2023/12/20 08:53:35;;;;;;;2.63;1.83;;;21.30;56.40;;;;;;5093761;28;20165;-69
2023/12/20 08:56:01;;;;;;;3.60;1.87;;;21.30;56.40;;;;;;5093444;28;20427;-68
2023/12/20 08:58:28;;;;;;;2.80;2.20;;;21.30;56.40;;;;;;5093593;28;20173;-68
2023/12/20 09:00:53;;;;;;;2.13;1.80;;;21.30;56.40;;;;;;5093728;28;20418;-67
2023/12/20 09:03:19;;;;;;;2.40;1.73;;;21.30;56.40;;;;;;5093503;28;20404;-68
2023/12/20 09:05:44;;;;;;;2.60;1.93;;;21.30;56.40;;;;;;5093410;28;20197;-67
2023/12/20 09:08:10;;;;;;;3.03;2.47;;;21.30;56.40;;;;;;5093235;28;20215;-68
2023/12/20 09:10:37;;;;;;;2.60;2.00;;;21.30;56.40;;;;;;5093229;28;20180;-69
2023/12/20 09:13:03;;;;;;;3.23;2.30;;;21.30;56.40;;;;;;5093208;28;20181;-69
2023/12/20 09:15:30;;;;;;;2.60;2.07;;;21.30;56.40;;;;;;5093315;28;20411;-69
2023/12/20 09:17:56;;;;;;;2.90;1.80;;;21.30;56.40;;;;;;5092749;28;20459;-69
2023/12/20 09:20:23;;;;;;;2.30;1.80;;;21.30;56.40;;;;;;5091763;28;20429;-69
2023/12/20 09:22:49;;;;;;;3.20;2.70;;;21.30;56.40;;;;;;5092996;28;20169;-69
2023/12/20 09:25:15;;;;;;;2.20;1.77;;;21.30;56.40;;;;;;5092896;28;20458;-69
2023/12/20 09:27:41;;;;;;;2.63;1.93;;;21.30;56.40;;;;;;5092744;28;20189;-68
2023/12/20 09:30:07;;;;;;;3.30;1.93;;;21.30;56.40;;;;;;5092618;28;20415;-69
2023/12/20 09:32:33;;;;;;;2.70;1.93;;;21.30;56.40;;;;;;5093003;28;20902;-69
2023/12/20 09:34:58;;;;;;;2.53;2.10;;;21.30;56.40;;;;;;5092682;28;20178;-69
2023/12/20 09:37:27;;;;;;;2.27;2.07;;;21.30;56.40;;;;;;5092576;28;20190;-69
2023/12/20 09:39:53;;;;;;;2.57;1.70;;;21.30;56.40;;;;;;5092668;28;20170;-69
2023/12/20 09:42:32;;;;;;;2.10;1.63;;;21.30;56.40;;;;;;5092387;28;20485;-69
2023/12/20 09:45:03;;;;;;;4.17;2.63;;;21.30;56.40;;;;;;5092352;28;20178;-69
2023/12/20 09:47:29;;;;;;;1.90;1.70;;;21.30;56.40;;;;;;5092339;28;20437;-69
2023/12/20 09:49:55;;;;;;;2.20;1.67;;;21.30;56.40;;;;;;5092338;28;20510;-69
2023/12/20 09:52:23;;;;;;;2.83;1.70;;;21.30;56.40;;;;;;5091916;28;20408;-69
2023/12/20 09:54:52;;;;;;;2.33;2.03;;;21.30;56.40;;;;;;5090733;28;20848;-69
2023/12/20 09:57:18;;;;;;;1.53;1.23;;;21.30;56.40;;;;;;5092314;28;20436;-69
2023/12/20 09:59:43;;;;;;;2.47;1.93;;;21.30;56.40;;;;;;5092563;28;20415;-69
2023/12/20 10:02:16;;;;;;;1.93;1.63;;;21.30;56.40;;;;;;5092566;28;20666;-69
2023/12/20 10:04:46;;;;;;;2.33;1.77;;;21.30;56.40;;;;;;5092181;28;20218;-68
2023/12/20 10:07:12;;;;;;;3.20;2.13;;;21.30;56.40;;;;;;5091952;28;20624;-69
2023/12/20 10:09:38;;;;;;;2.27;2.00;;;21.30;56.50;;;;;;5092080;28;20407;-70
2023/12/20 10:12:05;;;;;;;2.13;1.70;;;21.30;56.50;;;;;;5091955;28;20400;-69
2023/12/20 10:14:32;;;;;;;2.73;1.77;;;21.30;56.40;;;;;;5091921;28;20546;-69
2023/12/20 10:17:04;;;;;;;2.30;1.80;;;21.30;56.40;;;;;;5091569;28;20427;-69
2023/12/20 10:19:31;;;;;;;2.67;2.07;;;21.30;56.40;;;;;;5091665;28;20400;-69
2023/12/20 10:21:59;;;;;;;2.33;1.80;;;21.30;56.50;;;;;;5091868;28;20914;-69
2023/12/20 10:24:25;;;;;;;2.57;2.00;;;21.30;56.40;;;;;;5091718;28;20411;-68
2023/12/20 10:27:05;;;;;;;2.40;2.20;;;21.30;56.50;;;;;;5090337;28;20466;-69
2023/12/20 10:29:37;;;;;;;2.27;1.57;;;21.40;56.60;;;;;;5091862;28;20303;-68
2023/12/20 10:32:27;;;;;;;2.50;1.90;;;21.40;56.60;;;;;;5091842;28;20477;-69
2023/12/20 10:34:54;;;;;;;4.20;1.77;;;21.40;56.60;;;;;;5090989;28;20424;-69
2023/12/20 10:37:19;;;;;;;2.97;1.70;;;21.40;56.60;;;;;;5091328;28;20431;-69
2023/12/20 10:39:51;;;;;;;2.77;2.00;;;21.40;56.60;;;;;;5091504;28;20426;-68
2023/12/20 10:42:19;;;;;;;3.00;1.90;;;21.40;56.60;;;;;;5091445;28;20261;-70
2023/12/20 10:44:46;;;;;;;2.43;2.03;;;21.40;56.60;;;;;;5091782;28;20437;-68
2023/12/20 10:47:13;;;;;;;3.47;2.20;;;21.40;56.60;;;;;;5091270;28;20548;-69
2023/12/20 10:49:40;;;;;;;3.87;2.30;;;21.40;56.60;;;;;;5091350;28;20959;-69
2023/12/20 10:52:06;;;;;;;4.57;1.60;;;21.40;56.60;;;;;;5091265;28;20519;-69
2023/12/20 10:54:32;;;;;;;2.00;1.70;;;21.40;56.60;;;;;;5089897;28;20840;-69
2023/12/20 10:56:58;;;;;;;2.80;1.83;;;21.40;56.60;;;;;;5091310;28;20579;-69
2023/12/20 10:59:24;;;;;;;2.03;1.60;;;21.40;56.60;;;;;;5091123;28;20166;-68
2023/12/20 11:01:52;;;;;;;3.43;1.77;;;21.40;56.60;;;;;;5091038;28;20435;-69
2023/12/20 11:04:48;;;;;;;2.67;1.80;;;21.40;56.50;;;;;;5091381;28;20416;-68
2023/12/20 11:07:19;;;;;;;2.53;1.90;;;21.40;56.50;;;;;;5090024;28;20506;-69
2023/12/20 11:09:59;;;;;;;2.80;1.60;;;21.40;56.50;;;;;;5091249;28;20879;-69
2023/12/20 11:12:37;;;;;;;3.67;1.73;;;21.40;56.60;;;;;;5089587;28;20431;-69
2023/12/20 11:15:04;;;;;;;2.07;1.50;;;21.40;56.60;;;;;;5091060;28;20396;-69
2023/12/20 11:17:31;;;;;;;2.13;1.67;;;21.40;56.60;;;;;;5090673;28;20447;-69
2023/12/20 11:19:57;;;;;;;3.10;1.83;;;21.40;56.60;;;;;;5089310;28;20981;-70
2023/12/20 11:22:27;;;;;;;4.33;1.90;;;21.40;56.60;;;;;;5090938;28;20422;-68
2023/12/20 11:24:53;;;;;;;1.73;1.50;;;21.40;56.60;;;;;;5090607;28;20172;-68
2023/12/20 11:27:20;;;;;;;4.00;2.27;;;21.50;56.70;;;;;;5089168;28;20989;-69
2023/12/20 11:29:53;;;;;;;3.03;2.20;;;21.50;56.70;;;;;;5090649;28;20410;-69
2023/12/20 11:32:27;;;;;;;2.27;1.50;;;21.50;56.70;;;;;;5090703;28;20410;-69
2023/12/20 11:35:16;;;;;;;2.50;1.60;;;21.50;56.60;;;;;;5090685;28;20831;-69
2023/12/20 11:37:44;;;;;;;2.10;1.60;;;21.50;56.60;;;;;;5090730;28;20424;-69
2023/12/20 11:40:17;;;;;;;2.40;1.60;;;21.50;56.60;;;;;;5090903;28;20796;-69
2023/12/20 11:42:45;;;;;;;2.20;1.83;;;21.50;56.60;;;;;;5090851;28;20420;-69
2023/12/20 11:45:17;;;;;;;3.07;1.77;;;21.40;56.60;;;;;;5090367;28;20472;-69
2023/12/20 11:47:45;;;;;;;2.60;1.70;;;21.50;56.60;;;;;;5090296;28;21162;-70
2023/12/20 11:50:11;;;;;;;2.60;1.70;;;21.50;56.70;;;;;;5090304;28;20400;-69
2023/12/20 11:52:37;;;;;;;2.60;1.63;;;21.50;56.60;;;;;;5090348;28;21058;-68
2023/12/20 11:55:03;;;;;;;2.30;1.90;;;21.50;56.60;;;;;;5090478;28;20226;-69
2023/12/20 11:57:29;;;;;;;2.33;1.80;;;21.50;56.60;;;;;;5088838;28;20432;-68
2023/12/20 11:59:56;;;;;;;1.60;1.50;;;21.50;56.60;;;;;;5090560;28;20435;-68
2023/12/20 12:02:21;;;;;;;2.90;1.77;;;21.50;56.60;;;;;;5090347;28;20407;-68
2023/12/20 12:04:48;;;;;;;3.10;2.00;;;21.50;56.60;;;;;;5090200;28;20465;-69
2023/12/20 12:07:14;;;;;;;2.60;1.73;;;21.50;56.60;;;;;;5089977;28;20263;-69
2023/12/20 12:09:40;;;;;;;3.40;3.00;;;21.50;56.60;;;;;;5089380;28;20428;-69
2023/12/20 12:12:06;;;;;;;10.70;5.03;;;21.50;57.20;;;;;;5090203;28;20170;-69
2023/12/20 12:14:32;;;;;;;20.67;8.87;;;21.50;56.60;;;;;;5090308;28;20162;-69
2023/12/20 12:16:58;;;;;;;22.43;11.40;;;21.50;56.60;;;;;;5092334;28;20451;-69
2023/12/20 12:19:24;;;;;;;32.77;16.77;;;21.50;56.60;;;;;;5094214;28;20446;-69
2023/12/20 12:21:51;;;;;;;46.90;18.13;;;21.50;56.60;;;;;;5094119;28;20177;-69
2023/12/20 12:24:21;;;;;;;45.47;19.90;;;21.50;56.60;;;;;;5094294;28;20468;-68
2023/12/20 12:26:51;;;;;;;54.17;23.80;;;21.50;56.60;;;;;;5093913;28;21003;-70
2023/12/20 12:29:17;;;;;;;69.27;28.67;;;21.50;56.60;;;;;;5092736;28;20419;-70
2023/12/20 12:31:42;;;;;;;66.80;27.00;;;21.50;56.60;;;;;;5093928;28;20799;-69
2023/12/20 12:34:09;;;;;;;58.00;27.73;;;21.50;56.60;;;;;;5094035;28;20201;-69
2023/12/20 12:36:34;;;;;;;77.57;29.40;;;21.50;56.60;;;;;;5093904;28;20686;-70
2023/12/20 12:39:04;;;;;;;62.07;27.73;;;21.50;56.60;;;;;;5093813;28;20510;-69
2023/12/20 12:41:30;;;;;;;63.60;30.77;;;21.50;56.60;;;;;;5093866;28;20170;-69